Duco, Kentucky
Current Conditions -  °F | °C
As of 3:53 PM on Tuesday 27 Jan 2015 (Local Time) from KJKL Reporting Station
Clear Clear  
Wind Chill: -3°   Ceiling: Unl
Heat Index:   Visibility: 10mi
Dew Point: -13°   Wind: 9mph
Humidity: 34%   Direction: 330°NNW
Pressure: 30"   Gusts: NA
Location:  37.7261°N, 83.0786°W
Report Text: KJKL 272053Z AUTO 33008KT 10SM CLR 01/M13 A3000 RMK AO2 SLP170 T00111133 53007
Loading
Personal Weather Stations






























Interactive Weather Map New forecast layout! Learn more

10-Day Weather Forecast

Advertisements
Track Severe Weather on mobile